sensor_id;sensor_type;location;lat;lon;timestamp;pressure;altitude;pressure_sealevel;temperature;humidity
80118;BME280;69424;48.770;-1.564;2023-04-24T00:00:56;100989.39;;;10.10;78.74
80118;BME280;69424;48.770;-1.564;2023-04-24T00:03:25;100993.12;;;10.11;78.85
80118;BME280;69424;48.770;-1.564;2023-04-24T00:05:54;100992.09;;;10.13;79.09
80118;BME280;69424;48.770;-1.564;2023-04-24T00:08:22;100996.73;;;10.15;78.89
80118;BME280;69424;48.770;-1.564;2023-04-24T00:10:51;100999.23;;;10.18;78.54
80118;BME280;69424;48.770;-1.564;2023-04-24T00:13:20;101001.76;;;10.21;78.50
80118;BME280;69424;48.770;-1.564;2023-04-24T00:15:48;101000.89;;;10.22;78.69
80118;BME280;69424;48.770;-1.564;2023-04-24T00:18:17;101003.53;;;10.21;78.77
80118;BME280;69424;48.770;-1.564;2023-04-24T00:20:45;101003.32;;;10.19;78.57
80118;BME280;69424;48.770;-1.564;2023-04-24T00:23:14;101004.55;;;10.18;78.73
80118;BME280;69424;48.770;-1.564;2023-04-24T00:25:42;101003.52;;;10.20;78.84
80118;BME280;69424;48.770;-1.564;2023-04-24T00:28:10;101007.44;;;10.22;79.09
80118;BME280;69424;48.770;-1.564;2023-04-24T00:30:38;101004.80;;;10.23;78.86
80118;BME280;69424;48.770;-1.564;2023-04-24T00:33:06;101001.45;;;10.24;78.42
80118;BME280;69424;48.770;-1.564;2023-04-24T00:35:34;101008.91;;;10.27;78.26
80118;BME280;69424;48.770;-1.564;2023-04-24T00:38:02;101008.02;;;10.27;78.31
80118;BME280;69424;48.770;-1.564;2023-04-24T00:40:30;101006.23;;;10.25;78.15
80118;BME280;69424;48.770;-1.564;2023-04-24T00:42:58;101005.27;;;10.20;77.69
80118;BME280;69424;48.770;-1.564;2023-04-24T00:45:27;101011.35;;;10.13;77.54
80118;BME280;69424;48.770;-1.564;2023-04-24T00:47:55;101015.54;;;10.09;77.60
80118;BME280;69424;48.770;-1.564;2023-04-24T00:50:24;101015.55;;;10.09;77.91
80118;BME280;69424;48.770;-1.564;2023-04-24T00:52:53;101014.00;;;10.11;77.72
80118;BME280;69424;48.770;-1.564;2023-04-24T00:55:21;101016.86;;;10.14;77.70
80118;BME280;69424;48.770;-1.564;2023-04-24T00:57:49;101023.23;;;10.15;76.82
80118;BME280;69424;48.770;-1.564;2023-04-24T01:00:18;101020.91;;;10.15;76.85
80118;BME280;69424;48.770;-1.564;2023-04-24T01:02:47;101024.41;;;10.12;77.10
80118;BME280;69424;48.770;-1.564;2023-04-24T01:05:15;101023.30;;;10.08;76.97
80118;BME280;69424;48.770;-1.564;2023-04-24T01:07:45;101024.49;;;10.06;77.22
80118;BME280;69424;48.770;-1.564;2023-04-24T01:10:16;101032.63;;;10.06;76.99
80118;BME280;69424;48.770;-1.564;2023-04-24T01:12:46;101034.92;;;10.07;76.56
80118;BME280;69424;48.770;-1.564;2023-04-24T01:15:14;101036.71;;;10.07;76.83
80118;BME280;69424;48.770;-1.564;2023-04-24T01:17:43;101037.30;;;10.11;76.97
80118;BME280;69424;48.770;-1.564;2023-04-24T01:20:11;101039.79;;;10.12;76.71
80118;BME280;69424;48.770;-1.564;2023-04-24T01:22:42;101037.66;;;10.11;76.70
80118;BME280;69424;48.770;-1.564;2023-04-24T01:25:10;101039.04;;;10.08;76.34
80118;BME280;69424;48.770;-1.564;2023-04-24T01:27:38;101037.75;;;10.06;76.75
80118;BME280;69424;48.770;-1.564;2023-04-24T01:30:07;101040.04;;;10.05;77.17
80118;BME280;69424;48.770;-1.564;2023-04-24T01:32:36;101045.18;;;10.07;77.17
80118;BME280;69424;48.770;-1.564;2023-04-24T01:35:06;101053.90;;;10.10;76.37
80118;BME280;69424;48.770;-1.564;2023-04-24T01:37:34;101052.68;;;10.12;75.63
80118;BME280;69424;48.770;-1.564;2023-04-24T01:40:06;101056.05;;;10.12;76.10
80118;BME280;69424;48.770;-1.564;2023-04-24T01:42:35;101052.66;;;10.09;76.14
80118;BME280;69424;48.770;-1.564;2023-04-24T01:45:04;101057.72;;;10.06;76.23
80118;BME280;69424;48.770;-1.564;2023-04-24T01:47:33;101052.90;;;10.02;75.97
80118;BME280;69424;48.770;-1.564;2023-04-24T01:50:02;101052.34;;;10.01;76.15
80118;BME280;69424;48.770;-1.564;2023-04-24T01:52:32;101051.65;;;10.01;76.41
80118;BME280;69424;48.770;-1.564;2023-04-24T01:55:02;101051.13;;;10.03;76.61
80118;BME280;69424;48.770;-1.564;2023-04-24T01:57:32;101052.02;;;10.03;76.40
80118;BME280;69424;48.770;-1.564;2023-04-24T02:00:01;101056.81;;;10.04;75.57
80118;BME280;69424;48.770;-1.564;2023-04-24T02:02:40;101058.36;;;10.02;74.71
80118;BME280;69424;48.770;-1.564;2023-04-24T02:05:11;101057.22;;;9.97;74.92
80118;BME280;69424;48.770;-1.564;2023-04-24T02:07:39;101062.42;;;9.91;74.75
80118;BME280;69424;48.770;-1.564;2023-04-24T02:10:10;101060.00;;;9.83;74.97
80118;BME280;69424;48.770;-1.564;2023-04-24T02:12:42;101056.95;;;9.81;74.75
80118;BME280;69424;48.770;-1.564;2023-04-24T02:15:11;101059.77;;;9.80;75.27
80118;BME280;69424;48.770;-1.564;2023-04-24T02:17:40;101061.52;;;9.80;76.00
80118;BME280;69424;48.770;-1.564;2023-04-24T02:20:08;101058.17;;;9.80;76.07
80118;BME280;69424;48.770;-1.564;2023-04-24T02:22:36;101057.67;;;9.81;76.16
80118;BME280;69424;48.770;-1.564;2023-04-24T02:25:05;101062.96;;;9.81;76.19
80118;BME280;69424;48.770;-1.564;2023-04-24T02:27:33;101063.24;;;9.77;75.68
80118;BME280;69424;48.770;-1.564;2023-04-24T02:30:01;101065.10;;;9.72;75.55
80118;BME280;69424;48.770;-1.564;2023-04-24T02:32:30;101063.95;;;9.67;75.76
80118;BME280;69424;48.770;-1.564;2023-04-24T02:34:58;101063.89;;;9.64;76.25
80118;BME280;69424;48.770;-1.564;2023-04-24T02:37:27;101067.42;;;9.64;75.52
80118;BME280;69424;48.770;-1.564;2023-04-24T02:39:55;101067.95;;;9.63;75.73
80118;BME280;69424;48.770;-1.564;2023-04-24T02:42:23;101068.87;;;9.65;75.85
80118;BME280;69424;48.770;-1.564;2023-04-24T02:44:52;101071.54;;;9.67;75.97
80118;BME280;69424;48.770;-1.564;2023-04-24T02:47:20;101078.08;;;9.66;75.97
80118;BME280;69424;48.770;-1.564;2023-04-24T02:49:49;101080.89;;;9.66;75.71
80118;BME280;69424;48.770;-1.564;2023-04-24T02:52:17;101080.84;;;9.63;75.45
80118;BME280;69424;48.770;-1.564;2023-04-24T02:54:45;101081.66;;;9.60;76.00
80118;BME280;69424;48.770;-1.564;2023-04-24T02:57:14;101084.33;;;9.61;76.27
80118;BME280;69424;48.770;-1.564;2023-04-24T02:59:43;101090.92;;;9.64;76.27
80118;BME280;69424;48.770;-1.564;2023-04-24T03:02:11;101093.11;;;9.68;76.04
80118;BME280;69424;48.770;-1.564;2023-04-24T03:04:39;101089.12;;;9.72;75.78
80118;BME280;69424;48.770;-1.564;2023-04-24T03:07:08;101083.90;;;9.76;76.21
80118;BME280;69424;48.770;-1.564;2023-04-24T03:09:37;101081.45;;;9.77;76.58
80118;BME280;69424;48.770;-1.564;2023-04-24T03:12:05;101081.25;;;9.76;76.59
80118;BME280;69424;48.770;-1.564;2023-04-24T03:14:34;101079.08;;;9.73;76.38
80118;BME280;69424;48.770;-1.564;2023-04-24T03:17:03;101077.92;;;9.68;76.74
80118;BME280;69424;48.770;-1.564;2023-04-24T03:19:31;101081.08;;;9.67;76.11
80118;BME280;69424;48.770;-1.564;2023-04-24T03:22:03;101078.30;;;9.69;76.20
80118;BME280;69424;48.770;-1.564;2023-04-24T03:24:32;101078.69;;;9.71;75.68
80118;BME280;69424;48.770;-1.564;2023-04-24T03:27:01;101078.55;;;9.73;75.44
80118;BME280;69424;48.770;-1.564;2023-04-24T03:29:43;101084.20;;;9.72;75.76
80118;BME280;69424;48.770;-1.564;2023-04-24T03:32:12;101085.03;;;9.71;75.74
80118;BME280;69424;48.770;-1.564;2023-04-24T03:34:40;101086.73;;;9.68;75.75
80118;BME280;69424;48.770;-1.564;2023-04-24T03:37:09;101091.48;;;9.65;75.95
80118;BME280;69424;48.770;-1.564;2023-04-24T03:39:40;101092.13;;;9.63;76.30
80118;BME280;69424;48.770;-1.564;2023-04-24T03:42:09;101095.34;;;9.64;76.33
80118;BME280;69424;48.770;-1.564;2023-04-24T03:44:45;101099.61;;;9.66;76.21
80118;BME280;69424;48.770;-1.564;2023-04-24T03:47:13;101095.04;;;9.68;75.82
80118;BME280;69424;48.770;-1.564;2023-04-24T03:49:42;101098.45;;;9.70;75.43
80118;BME280;69424;48.770;-1.564;2023-04-24T03:52:11;101102.73;;;9.73;75.29
80118;BME280;69424;48.770;-1.564;2023-04-24T03:54:39;101101.15;;;9.73;75.24
80118;BME280;69424;48.770;-1.564;2023-04-24T03:57:07;101106.24;;;9.71;75.54
80118;BME280;69424;48.770;-1.564;2023-04-24T03:59:36;101110.25;;;9.69;76.53
80118;BME280;69424;48.770;-1.564;2023-04-24T04:02:14;101114.34;;;9.70;76.25
80118;BME280;69424;48.770;-1.564;2023-04-24T04:04:43;101113.89;;;9.74;76.00
80118;BME280;69424;48.770;-1.564;2023-04-24T04:07:11;101112.41;;;9.79;75.84
80118;BME280;69424;48.770;-1.564;2023-04-24T04:09:40;101113.73;;;9.85;75.19
80118;BME280;69424;48.770;-1.564;2023-04-24T04:12:09;101116.97;;;9.88;75.37
80118;BME280;69424;48.770;-1.564;2023-04-24T04:14:38;101119.83;;;9.90;75.76
80118;BME280;69424;48.770;-1.564;2023-04-24T04:17:06;101125.29;;;9.89;75.08
80118;BME280;69424;48.770;-1.564;2023-04-24T04:19:34;101123.50;;;9.88;75.47
80118;BME280;69424;48.770;-1.564;2023-04-24T04:22:03;101119.54;;;9.84;75.58
80118;BME280;69424;48.770;-1.564;2023-04-24T04:24:39;101125.88;;;9.83;75.55
80118;BME280;69424;48.770;-1.564;2023-04-24T04:27:09;101128.91;;;9.84;75.78
80118;BME280;69424;48.770;-1.564;2023-04-24T04:29:44;101134.77;;;9.86;75.77
80118;BME280;69424;48.770;-1.564;2023-04-24T04:32:13;101142.96;;;9.89;75.82
80118;BME280;69424;48.770;-1.564;2023-04-24T04:34:41;101146.36;;;9.92;75.44
80118;BME280;69424;48.770;-1.564;2023-04-24T04:37:11;101154.50;;;9.93;75.15
80118;BME280;69424;48.770;-1.564;2023-04-24T04:39:43;101156.39;;;9.90;74.59
80118;BME280;69424;48.770;-1.564;2023-04-24T04:42:17;101157.70;;;9.85;74.28
80118;BME280;69424;48.770;-1.564;2023-04-24T04:44:47;101163.27;;;9.80;74.48
80118;BME280;69424;48.770;-1.564;2023-04-24T04:47:21;101162.44;;;9.74;74.98
80118;BME280;69424;48.770;-1.564;2023-04-24T04:49:53;101160.46;;;9.71;75.31
80118;BME280;69424;48.770;-1.564;2023-04-24T04:52:24;101163.66;;;9.72;75.09
80118;BME280;69424;48.770;-1.564;2023-04-24T04:55:00;101169.03;;;9.77;74.86
80118;BME280;69424;48.770;-1.564;2023-04-24T04:57:42;101173.73;;;9.82;74.72
80118;BME280;69424;48.770;-1.564;2023-04-24T05:00:12;101175.58;;;9.86;75.01
80118;BME280;69424;48.770;-1.564;2023-04-24T05:02:46;101184.13;;;9.90;74.69
80118;BME280;69424;48.770;-1.564;2023-04-24T05:05:15;101183.96;;;9.90;74.28
80118;BME280;69424;48.770;-1.564;2023-04-24T05:07:45;101186.94;;;9.89;74.16
80118;BME280;69424;48.770;-1.564;2023-04-24T05:10:13;101184.05;;;9.86;73.92
80118;BME280;69424;48.770;-1.564;2023-04-24T05:12:41;101185.80;;;9.85;73.26
80118;BME280;69424;48.770;-1.564;2023-04-24T05:15:13;101187.98;;;9.88;73.38
80118;BME280;69424;48.770;-1.564;2023-04-24T05:17:41;101192.48;;;9.93;73.88
80118;BME280;69424;48.770;-1.564;2023-04-24T05:20:10;101196.61;;;9.97;73.32
80118;BME280;69424;48.770;-1.564;2023-04-24T05:22:38;101204.61;;;9.98;73.24
80118;BME280;69424;48.770;-1.564;2023-04-24T05:25:07;101208.31;;;9.99;72.55
80118;BME280;69424;48.770;-1.564;2023-04-24T05:27:41;101205.80;;;9.97;72.63
80118;BME280;69424;48.770;-1.564;2023-04-24T05:30:14;101210.20;;;9.95;73.47
80118;BME280;69424;48.770;-1.564;2023-04-24T05:32:42;101211.35;;;9.91;73.45
80118;BME280;69424;48.770;-1.564;2023-04-24T05:35:10;101214.16;;;9.90;72.46
80118;BME280;69424;48.770;-1.564;2023-04-24T05:37:38;101215.63;;;9.93;72.37
80118;BME280;69424;48.770;-1.564;2023-04-24T05:40:07;101210.19;;;9.95;72.18
80118;BME280;69424;48.770;-1.564;2023-04-24T05:42:36;101215.57;;;9.99;72.44
80118;BME280;69424;48.770;-1.564;2023-04-24T05:45:05;101219.52;;;10.02;72.42
80118;BME280;69424;48.770;-1.564;2023-04-24T05:47:33;101220.73;;;10.01;72.94
80118;BME280;69424;48.770;-1.564;2023-04-24T05:50:02;101220.71;;;10.00;73.46
80118;BME280;69424;48.770;-1.564;2023-04-24T05:52:31;101227.94;;;9.99;73.88
80118;BME280;69424;48.770;-1.564;2023-04-24T05:55:01;101231.95;;;9.96;73.73
80118;BME280;69424;48.770;-1.564;2023-04-24T05:57:31;101230.56;;;9.98;73.42
80118;BME280;69424;48.770;-1.564;2023-04-24T06:00:03;101229.45;;;10.04;73.11
80118;BME280;69424;48.770;-1.564;2023-04-24T06:02:40;101226.81;;;10.15;73.03
80118;BME280;69424;48.770;-1.564;2023-04-24T06:05:09;101230.15;;;10.23;72.24
80118;BME280;69424;48.770;-1.564;2023-04-24T06:07:37;101229.92;;;10.30;71.73
80118;BME280;69424;48.770;-1.564;2023-04-24T06:10:07;101229.38;;;10.37;71.22
80118;BME280;69424;48.770;-1.564;2023-04-24T06:12:40;101229.98;;;10.42;71.21
80118;BME280;69424;48.770;-1.564;2023-04-24T06:15:13;101231.53;;;10.39;71.05
80118;BME280;69424;48.770;-1.564;2023-04-24T06:17:57;101233.08;;;10.37;71.84
80118;BME280;69424;48.770;-1.564;2023-04-24T06:20:26;101228.52;;;10.39;72.11
80118;BME280;69424;48.770;-1.564;2023-04-24T06:22:54;101232.51;;;10.44;72.15
80118;BME280;69424;48.770;-1.564;2023-04-24T06:25:25;101229.75;;;10.49;71.51
80118;BME280;69424;48.770;-1.564;2023-04-24T06:27:54;101231.22;;;10.51;71.61
80118;BME280;69424;48.770;-1.564;2023-04-24T06:30:22;101230.15;;;10.51;71.55
80118;BME280;69424;48.770;-1.564;2023-04-24T06:32:51;101227.84;;;10.51;71.93
80118;BME280;69424;48.770;-1.564;2023-04-24T06:35:19;101227.86;;;10.51;71.47
80118;BME280;69424;48.770;-1.564;2023-04-24T06:37:47;101226.41;;;10.49;71.83
80118;BME280;69424;48.770;-1.564;2023-04-24T06:40:16;101231.59;;;10.52;72.78
80118;BME280;69424;48.770;-1.564;2023-04-24T06:42:46;101231.31;;;10.56;74.30
80118;BME280;69424;48.770;-1.564;2023-04-24T06:45:14;101232.98;;;10.60;74.93
80118;BME280;69424;48.770;-1.564;2023-04-24T06:47:43;101235.66;;;10.63;74.84
80118;BME280;69424;48.770;-1.564;2023-04-24T06:50:11;101233.77;;;10.67;74.35
80118;BME280;69424;48.770;-1.564;2023-04-24T06:52:40;101224.80;;;10.70;74.58
80118;BME280;69424;48.770;-1.564;2023-04-24T06:55:08;101226.06;;;10.71;74.95
80118;BME280;69424;48.770;-1.564;2023-04-24T06:57:37;101221.81;;;10.71;74.93
80118;BME280;69424;48.770;-1.564;2023-04-24T07:00:06;101226.91;;;10.68;75.44
80118;BME280;69424;48.770;-1.564;2023-04-24T07:02:37;101225.27;;;10.67;75.51
80118;BME280;69424;48.770;-1.564;2023-04-24T07:05:05;101222.30;;;10.69;75.91
80118;BME280;69424;48.770;-1.564;2023-04-24T07:07:34;101223.05;;;10.71;75.98
80118;BME280;69424;48.770;-1.564;2023-04-24T07:10:06;101224.95;;;10.78;76.19
80118;BME280;69424;48.770;-1.564;2023-04-24T07:12:34;101229.17;;;10.89;75.89
80118;BME280;69424;48.770;-1.564;2023-04-24T07:15:04;101225.80;;;11.12;75.69
80118;BME280;69424;48.770;-1.564;2023-04-24T07:17:34;101226.47;;;11.34;74.88
80118;BME280;69424;48.770;-1.564;2023-04-24T07:20:03;101230.71;;;11.47;74.02
80118;BME280;69424;48.770;-1.564;2023-04-24T07:22:31;101227.29;;;11.56;74.01
80118;BME280;69424;48.770;-1.564;2023-04-24T07:25:00;101233.33;;;11.57;73.70
80118;BME280;69424;48.770;-1.564;2023-04-24T07:27:29;101233.09;;;11.66;73.56
80118;BME280;69424;48.770;-1.564;2023-04-24T07:29:57;101231.69;;;11.83;73.48
80118;BME280;69424;48.770;-1.564;2023-04-24T07:32:25;101232.98;;;11.99;73.04
80118;BME280;69424;48.770;-1.564;2023-04-24T07:34:53;101235.42;;;12.14;72.35
80118;BME280;69424;48.770;-1.564;2023-04-24T07:37:21;101237.12;;;12.23;71.97
80118;BME280;69424;48.770;-1.564;2023-04-24T07:39:50;101237.59;;;12.35;72.07
80118;BME280;69424;48.770;-1.564;2023-04-24T07:42:18;101241.44;;;12.47;71.75
80118;BME280;69424;48.770;-1.564;2023-04-24T07:44:46;101245.06;;;12.57;70.91
80118;BME280;69424;48.770;-1.564;2023-04-24T07:47:15;101247.25;;;12.62;70.66
80118;BME280;69424;48.770;-1.564;2023-04-24T07:49:43;101250.69;;;12.71;70.91
80118;BME280;69424;48.770;-1.564;2023-04-24T07:52:12;101253.05;;;12.78;70.40
80118;BME280;69424;48.770;-1.564;2023-04-24T07:54:40;101256.09;;;12.80;69.92
80118;BME280;69424;48.770;-1.564;2023-04-24T07:57:08;101259.12;;;12.82;69.28
80118;BME280;69424;48.770;-1.564;2023-04-24T07:59:37;101255.05;;;12.83;69.41
80118;BME280;69424;48.770;-1.564;2023-04-24T08:02:05;101258.06;;;12.86;69.05
80118;BME280;69424;48.770;-1.564;2023-04-24T08:04:34;101256.84;;;12.86;69.32
80118;BME280;69424;48.770;-1.564;2023-04-24T08:07:02;101259.71;;;12.90;69.34
80118;BME280;69424;48.770;-1.564;2023-04-24T08:09:30;101254.81;;;13.00;68.63
80118;BME280;69424;48.770;-1.564;2023-04-24T08:11:58;101253.95;;;13.05;67.76
80118;BME280;69424;48.770;-1.564;2023-04-24T08:14:26;101255.77;;;13.09;68.08
80118;BME280;69424;48.770;-1.564;2023-04-24T08:16:55;101259.61;;;13.26;67.63
80118;BME280;69424;48.770;-1.564;2023-04-24T08:19:28;101263.48;;;13.45;67.19
80118;BME280;69424;48.770;-1.564;2023-04-24T08:21:56;101264.10;;;13.60;66.45
80118;BME280;69424;48.770;-1.564;2023-04-24T08:24:24;101262.20;;;13.71;65.48
80118;BME280;69424;48.770;-1.564;2023-04-24T08:26:52;101259.70;;;13.70;65.70
80118;BME280;69424;48.770;-1.564;2023-04-24T08:29:21;101263.13;;;13.82;66.01
80118;BME280;69424;48.770;-1.564;2023-04-24T08:31:49;101263.52;;;13.92;65.90
80118;BME280;69424;48.770;-1.564;2023-04-24T08:34:18;101263.91;;;14.02;64.48
80118;BME280;69424;48.770;-1.564;2023-04-24T08:36:46;101264.44;;;14.03;64.19
80118;BME280;69424;48.770;-1.564;2023-04-24T08:39:15;101267.80;;;13.97;64.54
80118;BME280;69424;48.770;-1.564;2023-04-24T08:41:44;101276.70;;;13.99;64.34
80118;BME280;69424;48.770;-1.564;2023-04-24T08:44:13;101276.20;;;14.03;64.18
80118;BME280;69424;48.770;-1.564;2023-04-24T08:46:43;101271.60;;;14.16;63.66
80118;BME280;69424;48.770;-1.564;2023-04-24T08:49:14;101273.55;;;14.18;63.34
80118;BME280;69424;48.770;-1.564;2023-04-24T08:51:44;101277.66;;;14.20;63.67
80118;BME280;69424;48.770;-1.564;2023-04-24T08:54:14;101277.67;;;14.23;63.29
80118;BME280;69424;48.770;-1.564;2023-04-24T08:56:44;101279.83;;;14.36;63.33
80118;BME280;69424;48.770;-1.564;2023-04-24T08:59:13;101279.30;;;14.41;62.70
80118;BME280;69424;48.770;-1.564;2023-04-24T09:01:42;101281.98;;;14.45;62.17
80118;BME280;69424;48.770;-1.564;2023-04-24T09:04:14;101283.21;;;14.39;62.11
80118;BME280;69424;48.770;-1.564;2023-04-24T09:06:44;101285.17;;;14.41;62.29
80118;BME280;69424;48.770;-1.564;2023-04-24T09:09:13;101286.76;;;14.34;61.38
80118;BME280;69424;48.770;-1.564;2023-04-24T09:11:41;101279.98;;;14.21;61.42
80118;BME280;69424;48.770;-1.564;2023-04-24T09:14:10;101286.88;;;14.10;62.57
80118;BME280;69424;48.770;-1.564;2023-04-24T09:16:38;101288.31;;;14.13;61.54
80118;BME280;69424;48.770;-1.564;2023-04-24T09:19:06;101288.15;;;14.21;62.42
80118;BME280;69424;48.770;-1.564;2023-04-24T09:21:35;101288.00;;;14.31;61.45
80118;BME280;69424;48.770;-1.564;2023-04-24T09:24:08;101283.75;;;14.39;61.13
80118;BME280;69424;48.770;-1.564;2023-04-24T09:26:42;101283.22;;;14.46;60.49
80118;BME280;69424;48.770;-1.564;2023-04-24T09:29:17;101283.08;;;14.55;61.42
80118;BME280;69424;48.770;-1.564;2023-04-24T09:31:45;101286.14;;;14.76;61.10
80118;BME280;69424;48.770;-1.564;2023-04-24T09:34:14;101285.44;;;14.88;59.65
80118;BME280;69424;48.770;-1.564;2023-04-24T09:36:42;101284.73;;;14.90;58.81
80118;BME280;69424;48.770;-1.564;2023-04-24T09:39:12;101287.58;;;14.89;59.45
80118;BME280;69424;48.770;-1.564;2023-04-24T09:41:54;101282.95;;;14.88;59.37
80118;BME280;69424;48.770;-1.564;2023-04-24T09:44:27;101279.39;;;14.90;59.44
80118;BME280;69424;48.770;-1.564;2023-04-24T09:46:57;101283.12;;;14.98;59.48
80118;BME280;69424;48.770;-1.564;2023-04-24T09:49:30;101282.92;;;15.11;58.94
80118;BME280;69424;48.770;-1.564;2023-04-24T09:52:06;101285.59;;;15.22;57.97
80118;BME280;69424;48.770;-1.564;2023-04-24T09:54:34;101287.00;;;15.28;57.44
80118;BME280;69424;48.770;-1.564;2023-04-24T09:57:07;101287.20;;;15.26;56.89
80118;BME280;69424;48.770;-1.564;2023-04-24T09:59:42;101290.93;;;15.20;57.15
80118;BME280;69424;48.770;-1.564;2023-04-24T10:02:19;101295.58;;;15.17;56.90
80118;BME280;69424;48.770;-1.564;2023-04-24T10:04:55;101294.86;;;15.18;58.05
80118;BME280;69424;48.770;-1.564;2023-04-24T10:07:28;101297.52;;;15.27;57.43
80118;BME280;69424;48.770;-1.564;2023-04-24T10:09:56;101299.27;;;15.39;57.22
80118;BME280;69424;48.770;-1.564;2023-04-24T10:12:26;101300.33;;;15.46;57.09
80118;BME280;69424;48.770;-1.564;2023-04-24T10:14:54;101301.55;;;15.53;56.61
80118;BME280;69424;48.770;-1.564;2023-04-24T10:17:25;101302.61;;;15.60;56.94
80118;BME280;69424;48.770;-1.564;2023-04-24T10:19:54;101300.98;;;15.71;56.66
80118;BME280;69424;48.770;-1.564;2023-04-24T10:22:23;101298.84;;;15.79;56.24
80118;BME280;69424;48.770;-1.564;2023-04-24T10:24:52;101301.12;;;15.90;56.25
80118;BME280;69424;48.770;-1.564;2023-04-24T10:27:21;101301.78;;;16.03;56.06
80118;BME280;69424;48.770;-1.564;2023-04-24T10:29:51;101298.89;;;16.12;55.20
80118;BME280;69424;48.770;-1.564;2023-04-24T10:32:20;101296.74;;;16.11;54.16
80118;BME280;69424;48.770;-1.564;2023-04-24T10:34:49;101297.27;;;16.16;54.42
80118;BME280;69424;48.770;-1.564;2023-04-24T10:37:17;101295.83;;;16.16;52.31
80118;BME280;69424;48.770;-1.564;2023-04-24T10:39:48;101295.86;;;16.08;52.32
80118;BME280;69424;48.770;-1.564;2023-04-24T10:42:17;101290.36;;;16.02;51.70
80118;BME280;69424;48.770;-1.564;2023-04-24T10:44:47;101288.41;;;16.00;52.25
80118;BME280;69424;48.770;-1.564;2023-04-24T10:47:16;101286.43;;;16.06;51.91
80118;BME280;69424;48.770;-1.564;2023-04-24T10:49:45;101290.11;;;16.19;52.58
80118;BME280;69424;48.770;-1.564;2023-04-24T10:52:13;101288.77;;;16.35;52.98
80118;BME280;69424;48.770;-1.564;2023-04-24T10:54:42;101284.05;;;16.48;52.56
80118;BME280;69424;48.770;-1.564;2023-04-24T11:02:40;101281.82;;;16.58;51.73
80118;BME280;69424;48.770;-1.564;2023-04-24T11:05:14;101281.77;;;16.66;52.54
80118;BME280;69424;48.770;-1.564;2023-04-24T11:10:47;101277.56;;;17.04;50.91
80118;BME280;69424;48.770;-1.564;2023-04-24T11:13:16;101275.39;;;17.25;50.18
80118;BME280;69424;48.770;-1.564;2023-04-24T11:18:43;101284.12;;;17.61;48.41
80118;BME280;69424;48.770;-1.564;2023-04-24T11:21:18;101287.35;;;17.45;48.52
80118;BME280;69424;48.770;-1.564;2023-04-24T11:23:47;101285.92;;;17.26;49.28
80118;BME280;69424;48.770;-1.564;2023-04-24T11:26:21;101291.41;;;17.14;49.65
80118;BME280;69424;48.770;-1.564;2023-04-24T11:28:51;101291.52;;;17.02;49.87
80118;BME280;69424;48.770;-1.564;2023-04-24T11:31:36;101291.98;;;16.89;50.17
80118;BME280;69424;48.770;-1.564;2023-04-24T11:34:11;101288.09;;;16.81;51.46
80118;BME280;69424;48.770;-1.564;2023-04-24T11:36:42;101287.21;;;16.78;51.77
80118;BME280;69424;48.770;-1.564;2023-04-24T11:39:11;101287.95;;;16.74;52.23
80118;BME280;69424;48.770;-1.564;2023-04-24T11:41:40;101286.59;;;16.66;52.14
80118;BME280;69424;48.770;-1.564;2023-04-24T11:44:09;101289.48;;;16.61;52.12
80118;BME280;69424;48.770;-1.564;2023-04-24T11:46:38;101287.67;;;16.64;52.86
80118;BME280;69424;48.770;-1.564;2023-04-24T11:49:08;101287.79;;;16.73;53.03
80118;BME280;69424;48.770;-1.564;2023-04-24T11:51:36;101292.05;;;16.76;52.03
80118;BME280;69424;48.770;-1.564;2023-04-24T11:54:20;101288.98;;;16.57;53.02
80118;BME280;69424;48.770;-1.564;2023-04-24T11:56:49;101289.06;;;16.44;53.69
80118;BME280;69424;48.770;-1.564;2023-04-24T11:59:17;101288.79;;;16.32;53.23
80118;BME280;69424;48.770;-1.564;2023-04-24T12:01:46;101289.58;;;16.18;53.75
80118;BME280;69424;48.770;-1.564;2023-04-24T12:04:16;101290.32;;;16.12;53.93
80118;BME280;69424;48.770;-1.564;2023-04-24T12:06:59;101287.33;;;16.04;54.48
80118;BME280;69424;48.770;-1.564;2023-04-24T12:09:28;101289.87;;;15.93;54.93
80118;BME280;69424;48.770;-1.564;2023-04-24T12:11:56;101291.35;;;15.81;55.85
80118;BME280;69424;48.770;-1.564;2023-04-24T12:14:24;101284.04;;;15.71;56.20
80118;BME280;69424;48.770;-1.564;2023-04-24T12:16:52;101290.30;;;15.65;55.62
80118;BME280;69424;48.770;-1.564;2023-04-24T12:19:22;101291.05;;;15.52;55.67
80118;BME280;69424;48.770;-1.564;2023-04-24T12:22:05;101289.13;;;15.44;56.07
80118;BME280;69424;48.770;-1.564;2023-04-24T12:24:33;101294.99;;;15.43;56.88
80118;BME280;69424;48.770;-1.564;2023-04-24T12:27:01;101288.23;;;15.35;57.70
80118;BME280;69424;48.770;-1.564;2023-04-24T12:29:30;101290.38;;;15.31;58.30
80118;BME280;69424;48.770;-1.564;2023-04-24T12:31:58;101292.88;;;15.31;57.82
80118;BME280;69424;48.770;-1.564;2023-04-24T12:34:26;101294.49;;;15.27;57.88
80118;BME280;69424;48.770;-1.564;2023-04-24T12:36:54;101296.45;;;15.27;57.87
80118;BME280;69424;48.770;-1.564;2023-04-24T12:39:23;101288.26;;;15.17;57.32
80118;BME280;69424;48.770;-1.564;2023-04-24T12:41:55;101287.38;;;15.09;57.21
80118;BME280;69424;48.770;-1.564;2023-04-24T12:44:34;101287.74;;;15.05;57.13
80118;BME280;69424;48.770;-1.564;2023-04-24T12:47:03;101280.96;;;15.07;57.62
80118;BME280;69424;48.770;-1.564;2023-04-24T12:49:31;101274.73;;;15.17;57.67
80118;BME280;69424;48.770;-1.564;2023-04-24T12:51:59;101277.02;;;15.27;57.91
80118;BME280;69424;48.770;-1.564;2023-04-24T12:54:32;101278.23;;;15.42;57.93
80118;BME280;69424;48.770;-1.564;2023-04-24T12:57:00;101276.79;;;15.53;57.46
80118;BME280;69424;48.770;-1.564;2023-04-24T12:59:29;101272.29;;;15.66;57.64
80118;BME280;69424;48.770;-1.564;2023-04-24T13:01:57;101273.70;;;15.79;56.46
80118;BME280;69424;48.770;-1.564;2023-04-24T13:04:25;101270.27;;;15.90;55.23
80118;BME280;69424;48.770;-1.564;2023-04-24T13:06:53;101271.49;;;15.95;54.93